sensor_id;sensor_type;location;lat;lon;timestamp;P1;durP1;ratioP1;P2;durP2;ratioP2
76138;SDS011;65138;50.946;7.074;2023-03-01T00:01:23;2.70;;;1.40;;
76138;SDS011;65138;50.946;7.074;2023-03-01T00:03:50;2.28;;;1.63;;
76138;SDS011;65138;50.946;7.074;2023-03-01T00:06:16;3.67;;;1.73;;
76138;SDS011;65138;50.946;7.074;2023-03-01T00:08:42;2.55;;;1.83;;
76138;SDS011;65138;50.946;7.074;2023-03-01T00:11:12;3.42;;;1.83;;
76138;SDS011;65138;50.946;7.074;2023-03-01T00:13:38;2.70;;;1.60;;
76138;SDS011;65138;50.946;7.074;2023-03-01T00:16:06;3.70;;;1.48;;
76138;SDS011;65138;50.946;7.074;2023-03-01T00:18:32;2.47;;;1.60;;
76138;SDS011;65138;50.946;7.074;2023-03-01T00:20:58;3.03;;;1.50;;
76138;SDS011;65138;50.946;7.074;2023-03-01T00:23:24;2.75;;;1.80;;
76138;SDS011;65138;50.946;7.074;2023-03-01T00:25:50;2.42;;;1.73;;
76138;SDS011;65138;50.946;7.074;2023-03-01T00:28:17;3.30;;;3.00;;
76138;SDS011;65138;50.946;7.074;2023-03-01T00:30:43;2.42;;;1.38;;
76138;SDS011;65138;50.946;7.074;2023-03-01T00:33:09;2.75;;;1.85;;
76138;SDS011;65138;50.946;7.074;2023-03-01T00:35:35;2.13;;;1.30;;
76138;SDS011;65138;50.946;7.074;2023-03-01T00:38:01;2.28;;;1.42;;
76138;SDS011;65138;50.946;7.074;2023-03-01T00:40:29;1.98;;;1.70;;
76138;SDS011;65138;50.946;7.074;2023-03-01T00:42:55;2.80;;;1.48;;
76138;SDS011;65138;50.946;7.074;2023-03-01T00:45:21;2.45;;;1.50;;
76138;SDS011;65138;50.946;7.074;2023-03-01T00:47:48;3.78;;;1.60;;
76138;SDS011;65138;50.946;7.074;2023-03-01T00:50:14;2.45;;;1.70;;
76138;SDS011;65138;50.946;7.074;2023-03-01T00:52:40;3.40;;;1.50;;
76138;SDS011;65138;50.946;7.074;2023-03-01T00:55:07;3.22;;;1.90;;
76138;SDS011;65138;50.946;7.074;2023-03-01T00:57:33;2.17;;;1.30;;
76138;SDS011;65138;50.946;7.074;2023-03-01T00:59:59;2.80;;;1.63;;
76138;SDS011;65138;50.946;7.074;2023-03-01T01:02:25;2.60;;;1.50;;
76138;SDS011;65138;50.946;7.074;2023-03-01T01:04:51;2.70;;;1.48;;
76138;SDS011;65138;50.946;7.074;2023-03-01T01:07:17;3.08;;;1.10;;
76138;SDS011;65138;50.946;7.074;2023-03-01T01:09:45;2.17;;;1.50;;
76138;SDS011;65138;50.946;7.074;2023-03-01T01:12:11;2.45;;;1.90;;
76138;SDS011;65138;50.946;7.074;2023-03-01T01:14:37;2.30;;;1.73;;
76138;SDS011;65138;50.946;7.074;2023-03-01T01:17:03;2.58;;;1.60;;
76138;SDS011;65138;50.946;7.074;2023-03-01T01:19:29;2.72;;;1.83;;
76138;SDS011;65138;50.946;7.074;2023-03-01T01:21:55;2.63;;;1.45;;
76138;SDS011;65138;50.946;7.074;2023-03-01T01:24:21;3.10;;;1.40;;
76138;SDS011;65138;50.946;7.074;2023-03-01T01:26:48;2.03;;;1.30;;
76138;SDS011;65138;50.946;7.074;2023-03-01T01:29:14;2.97;;;1.85;;
76138;SDS011;65138;50.946;7.074;2023-03-01T01:31:41;2.33;;;1.23;;
76138;SDS011;65138;50.946;7.074;2023-03-01T01:34:08;1.75;;;1.20;;
76138;SDS011;65138;50.946;7.074;2023-03-01T01:36:38;1.98;;;1.10;;
76138;SDS011;65138;50.946;7.074;2023-03-01T01:39:04;2.38;;;2.17;;
76138;SDS011;65138;50.946;7.074;2023-03-01T01:41:30;3.10;;;1.50;;
76138;SDS011;65138;50.946;7.074;2023-03-01T01:46:42;2.35;;;1.33;;
76138;SDS011;65138;50.946;7.074;2023-03-01T01:49:16;2.75;;;1.40;;
76138;SDS011;65138;50.946;7.074;2023-03-01T01:51:44;2.53;;;1.30;;
76138;SDS011;65138;50.946;7.074;2023-03-01T01:54:23;2.05;;;1.40;;
76138;SDS011;65138;50.946;7.074;2023-03-01T01:56:52;2.42;;;1.20;;
76138;SDS011;65138;50.946;7.074;2023-03-01T01:59:21;2.50;;;1.30;;
76138;SDS011;65138;50.946;7.074;2023-03-01T02:01:50;2.55;;;1.30;;
76138;SDS011;65138;50.946;7.074;2023-03-01T02:04:16;3.03;;;1.65;;
76138;SDS011;65138;50.946;7.074;2023-03-01T02:06:48;2.80;;;1.30;;
76138;SDS011;65138;50.946;7.074;2023-03-01T02:09:16;2.22;;;1.27;;
76138;SDS011;65138;50.946;7.074;2023-03-01T02:11:44;2.13;;;1.27;;
76138;SDS011;65138;50.946;7.074;2023-03-01T02:14:10;3.10;;;1.27;;
76138;SDS011;65138;50.946;7.074;2023-03-01T02:16:36;2.38;;;1.35;;
76138;SDS011;65138;50.946;7.074;2023-03-01T02:19:02;2.67;;;1.88;;
76138;SDS011;65138;50.946;7.074;2023-03-01T02:24:01;1.90;;;1.35;;
76138;SDS011;65138;50.946;7.074;2023-03-01T02:26:41;2.08;;;1.08;;
76138;SDS011;65138;50.946;7.074;2023-03-01T02:29:08;2.10;;;1.10;;
76138;SDS011;65138;50.946;7.074;2023-03-01T02:31:34;2.60;;;1.27;;
76138;SDS011;65138;50.946;7.074;2023-03-01T02:36:41;2.25;;;1.15;;
76138;SDS011;65138;50.946;7.074;2023-03-01T02:39:08;2.17;;;1.08;;
76138;SDS011;65138;50.946;7.074;2023-03-01T02:41:41;2.58;;;1.20;;
76138;SDS011;65138;50.946;7.074;2023-03-01T02:44:08;2.50;;;2.22;;
76138;SDS011;65138;50.946;7.074;2023-03-01T02:46:41;1.83;;;1.00;;
76138;SDS011;65138;50.946;7.074;2023-03-01T02:55:01;2.45;;;1.27;;
76138;SDS011;65138;50.946;7.074;2023-03-01T02:57:28;2.47;;;1.10;;
76138;SDS011;65138;50.946;7.074;2023-03-01T02:59:56;3.28;;;1.42;;
76138;SDS011;65138;50.946;7.074;2023-03-01T03:02:24;2.30;;;1.40;;
76138;SDS011;65138;50.946;7.074;2023-03-01T03:05:09;2.92;;;1.38;;
76138;SDS011;65138;50.946;7.074;2023-03-01T03:07:36;1.67;;;1.10;;
76138;SDS011;65138;50.946;7.074;2023-03-01T03:10:03;2.78;;;1.30;;
76138;SDS011;65138;50.946;7.074;2023-03-01T03:12:29;2.80;;;1.40;;
76138;SDS011;65138;50.946;7.074;2023-03-01T03:14:55;1.77;;;1.23;;
76138;SDS011;65138;50.946;7.074;2023-03-01T03:17:21;2.17;;;1.92;;
76138;SDS011;65138;50.946;7.074;2023-03-01T03:19:47;1.90;;;1.15;;
76138;SDS011;65138;50.946;7.074;2023-03-01T03:22:13;2.53;;;1.15;;
76138;SDS011;65138;50.946;7.074;2023-03-01T03:24:39;2.20;;;0.93;;
76138;SDS011;65138;50.946;7.074;2023-03-01T03:27:05;2.05;;;1.30;;
76138;SDS011;65138;50.946;7.074;2023-03-01T03:29:32;2.47;;;2.08;;
76138;SDS011;65138;50.946;7.074;2023-03-01T03:31:58;1.65;;;1.30;;
76138;SDS011;65138;50.946;7.074;2023-03-01T03:34:24;2.15;;;1.13;;
76138;SDS011;65138;50.946;7.074;2023-03-01T03:36:54;2.72;;;1.50;;
76138;SDS011;65138;50.946;7.074;2023-03-01T03:39:24;2.40;;;1.65;;
76138;SDS011;65138;50.946;7.074;2023-03-01T03:41:51;2.53;;;2.15;;
76138;SDS011;65138;50.946;7.074;2023-03-01T03:44:17;2.78;;;1.10;;
76138;SDS011;65138;50.946;7.074;2023-03-01T03:46:43;2.78;;;1.55;;
76138;SDS011;65138;50.946;7.074;2023-03-01T03:49:09;2.42;;;2.03;;
76138;SDS011;65138;50.946;7.074;2023-03-01T03:51:35;2.55;;;1.10;;
76138;SDS011;65138;50.946;7.074;2023-03-01T03:54:01;2.05;;;1.10;;
76138;SDS011;65138;50.946;7.074;2023-03-01T03:56:27;2.38;;;1.20;;
76138;SDS011;65138;50.946;7.074;2023-03-01T03:58:53;3.15;;;1.67;;
76138;SDS011;65138;50.946;7.074;2023-03-01T04:01:19;1.73;;;0.98;;
76138;SDS011;65138;50.946;7.074;2023-03-01T04:03:45;2.55;;;1.33;;
76138;SDS011;65138;50.946;7.074;2023-03-01T04:06:12;1.65;;;1.27;;
76138;SDS011;65138;50.946;7.074;2023-03-01T04:08:38;2.22;;;1.30;;
76138;SDS011;65138;50.946;7.074;2023-03-01T04:11:04;3.67;;;1.63;;
76138;SDS011;65138;50.946;7.074;2023-03-01T04:13:49;4.05;;;1.35;;
76138;SDS011;65138;50.946;7.074;2023-03-01T04:16:15;2.20;;;1.15;;
76138;SDS011;65138;50.946;7.074;2023-03-01T04:18:42;2.03;;;1.15;;
76138;SDS011;65138;50.946;7.074;2023-03-01T04:21:08;2.15;;;1.17;;
76138;SDS011;65138;50.946;7.074;2023-03-01T04:23:36;2.65;;;1.40;;
76138;SDS011;65138;50.946;7.074;2023-03-01T04:26:02;2.63;;;1.42;;
76138;SDS011;65138;50.946;7.074;2023-03-01T04:28:32;1.92;;;1.25;;
76138;SDS011;65138;50.946;7.074;2023-03-01T04:33:25;1.90;;;1.13;;
76138;SDS011;65138;50.946;7.074;2023-03-01T04:35:51;2.92;;;0.90;;
76138;SDS011;65138;50.946;7.074;2023-03-01T04:38:18;2.35;;;1.23;;
76138;SDS011;65138;50.946;7.074;2023-03-01T04:40:44;2.22;;;1.30;;
76138;SDS011;65138;50.946;7.074;2023-03-01T04:43:10;2.53;;;1.40;;
76138;SDS011;65138;50.946;7.074;2023-03-01T04:45:39;2.00;;;1.10;;
76138;SDS011;65138;50.946;7.074;2023-03-01T04:48:05;2.22;;;1.13;;
76138;SDS011;65138;50.946;7.074;2023-03-01T04:50:31;3.05;;;1.60;;
76138;SDS011;65138;50.946;7.074;2023-03-01T04:52:57;2.35;;;1.80;;
76138;SDS011;65138;50.946;7.074;2023-03-01T04:55:24;2.50;;;1.33;;
76138;SDS011;65138;50.946;7.074;2023-03-01T04:57:50;1.90;;;1.10;;
76138;SDS011;65138;50.946;7.074;2023-03-01T05:00:17;1.98;;;1.27;;
76138;SDS011;65138;50.946;7.074;2023-03-01T05:02:50;2.55;;;1.30;;
76138;SDS011;65138;50.946;7.074;2023-03-01T05:05:22;2.30;;;1.20;;
76138;SDS011;65138;50.946;7.074;2023-03-01T05:07:50;1.90;;;0.98;;
76138;SDS011;65138;50.946;7.074;2023-03-01T05:10:16;2.28;;;1.15;;
76138;SDS011;65138;50.946;7.074;2023-03-01T05:12:42;2.28;;;1.08;;
76138;SDS011;65138;50.946;7.074;2023-03-01T05:15:08;2.35;;;1.23;;
76138;SDS011;65138;50.946;7.074;2023-03-01T05:17:35;2.00;;;0.98;;
76138;SDS011;65138;50.946;7.074;2023-03-01T05:20:01;2.22;;;1.30;;
76138;SDS011;65138;50.946;7.074;2023-03-01T05:22:32;2.17;;;1.35;;
76138;SDS011;65138;50.946;7.074;2023-03-01T05:24:58;2.38;;;1.30;;
76138;SDS011;65138;50.946;7.074;2023-03-01T05:27:24;1.92;;;1.20;;
76138;SDS011;65138;50.946;7.074;2023-03-01T05:29:49;2.63;;;1.27;;
76138;SDS011;65138;50.946;7.074;2023-03-01T05:32:15;2.65;;;2.00;;
76138;SDS011;65138;50.946;7.074;2023-03-01T05:34:41;2.50;;;1.23;;
76138;SDS011;65138;50.946;7.074;2023-03-01T05:37:07;1.70;;;0.93;;
76138;SDS011;65138;50.946;7.074;2023-03-01T05:39:34;2.20;;;1.60;;
76138;SDS011;65138;50.946;7.074;2023-03-01T05:42:00;2.35;;;1.45;;
76138;SDS011;65138;50.946;7.074;2023-03-01T05:44:27;2.55;;;1.40;;
76138;SDS011;65138;50.946;7.074;2023-03-01T05:46:54;4.68;;;2.13;;
76138;SDS011;65138;50.946;7.074;2023-03-01T05:49:20;4.22;;;1.73;;
76138;SDS011;65138;50.946;7.074;2023-03-01T05:51:50;4.30;;;1.77;;
76138;SDS011;65138;50.946;7.074;2023-03-01T05:54:17;2.92;;;1.85;;
76138;SDS011;65138;50.946;7.074;2023-03-01T05:56:43;6.50;;;2.28;;
76138;SDS011;65138;50.946;7.074;2023-03-01T05:59:09;6.05;;;2.10;;
76138;SDS011;65138;50.946;7.074;2023-03-01T06:01:35;3.97;;;1.80;;
76138;SDS011;65138;50.946;7.074;2023-03-01T06:04:02;4.57;;;1.95;;
76138;SDS011;65138;50.946;7.074;2023-03-01T06:06:37;4.28;;;1.67;;
76138;SDS011;65138;50.946;7.074;2023-03-01T06:09:07;4.00;;;1.30;;
76138;SDS011;65138;50.946;7.074;2023-03-01T06:11:35;4.95;;;1.73;;
76138;SDS011;65138;50.946;7.074;2023-03-01T06:14:01;3.08;;;1.70;;
76138;SDS011;65138;50.946;7.074;2023-03-01T06:16:27;3.13;;;2.42;;
76138;SDS011;65138;50.946;7.074;2023-03-01T06:18:53;3.17;;;1.45;;
76138;SDS011;65138;50.946;7.074;2023-03-01T06:21:19;4.95;;;1.75;;
76138;SDS011;65138;50.946;7.074;2023-03-01T06:23:45;4.25;;;1.92;;
76138;SDS011;65138;50.946;7.074;2023-03-01T06:26:11;2.33;;;1.35;;
76138;SDS011;65138;50.946;7.074;2023-03-01T06:28:37;4.10;;;1.90;;
76138;SDS011;65138;50.946;7.074;2023-03-01T06:31:03;5.50;;;2.17;;
76138;SDS011;65138;50.946;7.074;2023-03-01T06:33:33;7.90;;;1.83;;
76138;SDS011;65138;50.946;7.074;2023-03-01T06:35:59;3.67;;;2.00;;
76138;SDS011;65138;50.946;7.074;2023-03-01T06:38:25;3.40;;;1.77;;
76138;SDS011;65138;50.946;7.074;2023-03-01T06:40:52;4.47;;;1.75;;
76138;SDS011;65138;50.946;7.074;2023-03-01T06:43:19;3.20;;;1.30;;
76138;SDS011;65138;50.946;7.074;2023-03-01T06:45:45;2.63;;;1.42;;
76138;SDS011;65138;50.946;7.074;2023-03-01T06:48:11;6.28;;;1.63;;
76138;SDS011;65138;50.946;7.074;2023-03-01T06:50:37;3.17;;;1.77;;
76138;SDS011;65138;50.946;7.074;2023-03-01T06:53:03;4.45;;;1.75;;
76138;SDS011;65138;50.946;7.074;2023-03-01T06:55:29;3.95;;;1.70;;
76138;SDS011;65138;50.946;7.074;2023-03-01T06:57:56;4.47;;;2.13;;
76138;SDS011;65138;50.946;7.074;2023-03-01T07:00:22;6.47;;;2.08;;
76138;SDS011;65138;50.946;7.074;2023-03-01T07:02:49;6.68;;;2.10;;
76138;SDS011;65138;50.946;7.074;2023-03-01T07:05:14;5.07;;;2.03;;
76138;SDS011;65138;50.946;7.074;2023-03-01T07:07:40;9.20;;;2.00;;
76138;SDS011;65138;50.946;7.074;2023-03-01T07:10:07;6.55;;;2.75;;
76138;SDS011;65138;50.946;7.074;2023-03-01T07:12:33;9.30;;;2.95;;
76138;SDS011;65138;50.946;7.074;2023-03-01T07:14:59;7.75;;;3.00;;
76138;SDS011;65138;50.946;7.074;2023-03-01T07:17:25;3.42;;;2.10;;
76138;SDS011;65138;50.946;7.074;2023-03-01T07:19:51;5.03;;;2.30;;
76138;SDS011;65138;50.946;7.074;2023-03-01T07:22:17;5.93;;;2.30;;
76138;SDS011;65138;50.946;7.074;2023-03-01T07:24:43;6.97;;;2.50;;
76138;SDS011;65138;50.946;7.074;2023-03-01T07:27:09;4.60;;;2.40;;
76138;SDS011;65138;50.946;7.074;2023-03-01T07:29:35;5.40;;;2.28;;
76138;SDS011;65138;50.946;7.074;2023-03-01T07:32:04;4.53;;;2.10;;
76138;SDS011;65138;50.946;7.074;2023-03-01T07:34:30;6.10;;;2.15;;
76138;SDS011;65138;50.946;7.074;2023-03-01T07:36:56;6.47;;;2.15;;
76138;SDS011;65138;50.946;7.074;2023-03-01T07:39:22;5.03;;;2.60;;
76138;SDS011;65138;50.946;7.074;2023-03-01T07:41:49;5.03;;;2.10;;
76138;SDS011;65138;50.946;7.074;2023-03-01T07:44:19;7.50;;;1.95;;
76138;SDS011;65138;50.946;7.074;2023-03-01T07:46:45;7.85;;;2.85;;
76138;SDS011;65138;50.946;7.074;2023-03-01T07:49:11;7.05;;;2.13;;
76138;SDS011;65138;50.946;7.074;2023-03-01T07:51:37;7.15;;;2.15;;
76138;SDS011;65138;50.946;7.074;2023-03-01T07:54:03;4.57;;;2.30;;
76138;SDS011;65138;50.946;7.074;2023-03-01T07:56:29;8.35;;;2.97;;
76138;SDS011;65138;50.946;7.074;2023-03-01T07:58:55;11.63;;;2.55;;
76138;SDS011;65138;50.946;7.074;2023-03-01T08:01:22;11.43;;;3.10;;
76138;SDS011;65138;50.946;7.074;2023-03-01T08:03:48;7.65;;;3.35;;
76138;SDS011;65138;50.946;7.074;2023-03-01T08:06:15;6.70;;;2.50;;
76138;SDS011;65138;50.946;7.074;2023-03-01T08:08:41;8.25;;;2.55;;
76138;SDS011;65138;50.946;7.074;2023-03-01T08:11:09;7.75;;;3.00;;
76138;SDS011;65138;50.946;7.074;2023-03-01T08:13:36;8.63;;;3.47;;
76138;SDS011;65138;50.946;7.074;2023-03-01T08:16:05;13.68;;;4.88;;
76138;SDS011;65138;50.946;7.074;2023-03-01T08:18:32;8.63;;;4.53;;
76138;SDS011;65138;50.946;7.074;2023-03-01T08:21:02;8.85;;;4.22;;
76138;SDS011;65138;50.946;7.074;2023-03-01T08:23:28;11.10;;;3.55;;
76138;SDS011;65138;50.946;7.074;2023-03-01T08:25:54;7.43;;;3.53;;
76138;SDS011;65138;50.946;7.074;2023-03-01T08:28:21;11.77;;;4.00;;
76138;SDS011;65138;50.946;7.074;2023-03-01T08:30:47;9.65;;;4.18;;
76138;SDS011;65138;50.946;7.074;2023-03-01T08:33:13;8.52;;;4.10;;
76138;SDS011;65138;50.946;7.074;2023-03-01T08:35:39;8.02;;;3.20;;
76138;SDS011;65138;50.946;7.074;2023-03-01T08:38:05;5.97;;;3.13;;
76138;SDS011;65138;50.946;7.074;2023-03-01T08:40:31;7.22;;;3.22;;
76138;SDS011;65138;50.946;7.074;2023-03-01T08:42:57;7.50;;;3.40;;
76138;SDS011;65138;50.946;7.074;2023-03-01T08:45:23;5.93;;;3.60;;
76138;SDS011;65138;50.946;7.074;2023-03-01T08:47:51;7.53;;;2.92;;
76138;SDS011;65138;50.946;7.074;2023-03-01T08:50:18;5.97;;;2.90;;
76138;SDS011;65138;50.946;7.074;2023-03-01T08:52:44;5.75;;;2.65;;
76138;SDS011;65138;50.946;7.074;2023-03-01T08:55:10;5.60;;;2.25;;
76138;SDS011;65138;50.946;7.074;2023-03-01T08:57:36;7.53;;;2.53;;
76138;SDS011;65138;50.946;7.074;2023-03-01T09:00:02;3.85;;;2.47;;
76138;SDS011;65138;50.946;7.074;2023-03-01T09:02:28;4.30;;;2.55;;
76138;SDS011;65138;50.946;7.074;2023-03-01T09:04:54;4.95;;;2.53;;
76138;SDS011;65138;50.946;7.074;2023-03-01T09:07:20;4.97;;;2.67;;
76138;SDS011;65138;50.946;7.074;2023-03-01T09:09:46;4.65;;;2.20;;
76138;SDS011;65138;50.946;7.074;2023-03-01T09:12:12;4.25;;;2.13;;
76138;SDS011;65138;50.946;7.074;2023-03-01T09:14:38;4.55;;;2.15;;
76138;SDS011;65138;50.946;7.074;2023-03-01T09:17:06;3.33;;;2.30;;
76138;SDS011;65138;50.946;7.074;2023-03-01T09:19:32;4.40;;;2.40;;
76138;SDS011;65138;50.946;7.074;2023-03-01T09:21:58;4.50;;;2.88;;
76138;SDS011;65138;50.946;7.074;2023-03-01T09:24:24;4.20;;;2.28;;
76138;SDS011;65138;50.946;7.074;2023-03-01T09:26:52;5.00;;;2.08;;
76138;SDS011;65138;50.946;7.074;2023-03-01T09:29:19;3.88;;;1.95;;
76138;SDS011;65138;50.946;7.074;2023-03-01T09:31:45;3.05;;;1.88;;
76138;SDS011;65138;50.946;7.074;2023-03-01T09:34:11;4.93;;;1.65;;
76138;SDS011;65138;50.946;7.074;2023-03-01T09:36:41;4.20;;;2.00;;
76138;SDS011;65138;50.946;7.074;2023-03-01T09:39:07;4.05;;;1.98;;
76138;SDS011;65138;50.946;7.074;2023-03-01T09:44:10;3.60;;;1.73;;
76138;SDS011;65138;50.946;7.074;2023-03-01T09:46:40;3.20;;;1.42;;
76138;SDS011;65138;50.946;7.074;2023-03-01T09:49:21;3.55;;;1.65;;
76138;SDS011;65138;50.946;7.074;2023-03-01T09:52:03;5.00;;;1.67;;
76138;SDS011;65138;50.946;7.074;2023-03-01T09:54:30;3.60;;;1.88;;
76138;SDS011;65138;50.946;7.074;2023-03-01T09:57:06;3.15;;;1.60;;
76138;SDS011;65138;50.946;7.074;2023-03-01T09:59:45;2.70;;;1.70;;
76138;SDS011;65138;50.946;7.074;2023-03-01T10:04:50;3.22;;;1.63;;
76138;SDS011;65138;50.946;7.074;2023-03-01T10:10:02;2.55;;;1.50;;
76138;SDS011;65138;50.946;7.074;2023-03-01T10:12:35;4.75;;;1.52;;
76138;SDS011;65138;50.946;7.074;2023-03-01T10:17:32;2.83;;;1.50;;
76138;SDS011;65138;50.946;7.074;2023-03-01T10:22:41;5.30;;;2.00;;
76138;SDS011;65138;50.946;7.074;2023-03-01T10:25:12;3.20;;;1.70;;
76138;SDS011;65138;50.946;7.074;2023-03-01T10:27:43;3.78;;;2.35;;
76138;SDS011;65138;50.946;7.074;2023-03-01T10:32:57;2.63;;;1.58;;
76138;SDS011;65138;50.946;7.074;2023-03-01T10:35:25;3.10;;;1.55;;
76138;SDS011;65138;50.946;7.074;2023-03-01T10:38:00;3.35;;;1.80;;
76138;SDS011;65138;50.946;7.074;2023-03-01T10:40:28;3.65;;;1.83;;
76138;SDS011;65138;50.946;7.074;2023-03-01T10:42:54;2.45;;;1.60;;
76138;SDS011;65138;50.946;7.074;2023-03-01T10:45:39;4.30;;;2.00;;
76138;SDS011;65138;50.946;7.074;2023-03-01T10:48:08;3.25;;;1.90;;
76138;SDS011;65138;50.946;7.074;2023-03-01T10:50:37;3.42;;;1.73;;
76138;SDS011;65138;50.946;7.074;2023-03-01T10:53:05;4.25;;;1.73;;
76138;SDS011;65138;50.946;7.074;2023-03-01T10:55:35;3.50;;;1.38;;
76138;SDS011;65138;50.946;7.074;2023-03-01T11:00:27;3.65;;;2.58;;
76138;SDS011;65138;50.946;7.074;2023-03-01T11:03:12;3.10;;;1.67;;
76138;SDS011;65138;50.946;7.074;2023-03-01T11:05:52;3.00;;;1.33;;
76138;SDS011;65138;50.946;7.074;2023-03-01T11:13:40;2.20;;;1.48;;
76138;SDS011;65138;50.946;7.074;2023-03-01T11:16:13;4.32;;;1.60;;
76138;SDS011;65138;50.946;7.074;2023-03-01T11:18:39;3.30;;;2.10;;
76138;SDS011;65138;50.946;7.074;2023-03-01T11:21:05;4.38;;;2.17;;
76138;SDS011;65138;50.946;7.074;2023-03-01T11:23:32;2.47;;;1.77;;
76138;SDS011;65138;50.946;7.074;2023-03-01T11:26:01;3.58;;;2.08;;
76138;SDS011;65138;50.946;7.074;2023-03-01T11:28:28;4.25;;;2.45;;
76138;SDS011;65138;50.946;7.074;2023-03-01T11:35:53;4.93;;;2.75;;
76138;SDS011;65138;50.946;7.074;2023-03-01T11:38:22;6.55;;;2.28;;
76138;SDS011;65138;50.946;7.074;2023-03-01T11:41:04;5.20;;;3.10;;
76138;SDS011;65138;50.946;7.074;2023-03-01T11:43:33;6.63;;;2.15;;
76138;SDS011;65138;50.946;7.074;2023-03-01T11:46:24;5.65;;;2.30;;
76138;SDS011;65138;50.946;7.074;2023-03-01T11:59:39;3.88;;;1.92;;
76138;SDS011;65138;50.946;7.074;2023-03-01T12:02:23;4.85;;;1.75;;
76138;SDS011;65138;50.946;7.074;2023-03-01T12:07:29;4.65;;;1.65;;
76138;SDS011;65138;50.946;7.074;2023-03-01T12:12:42;10.50;;;2.10;;
76138;SDS011;65138;50.946;7.074;2023-03-01T12:31:02;13.70;;;5.45;;
76138;SDS011;65138;50.946;7.074;2023-03-01T12:38:59;9.35;;;5.93;;
76138;SDS011;65138;50.946;7.074;2023-03-01T12:51:27;6.82;;;4.20;;
76138;SDS011;65138;50.946;7.074;2023-03-01T12:53:55;7.63;;;3.58;;
76138;SDS011;65138;50.946;7.074;2023-03-01T12:56:24;7.00;;;3.30;;
76138;SDS011;65138;50.946;7.074;2023-03-01T13:06:33;7.65;;;3.15;;
76138;SDS011;65138;50.946;7.074;2023-03-01T13:09:08;5.10;;;2.72;;
76138;SDS011;65138;50.946;7.074;2023-03-01T13:11:41;7.00;;;3.08;;
76138;SDS011;65138;50.946;7.074;2023-03-01T13:16:48;6.35;;;2.63;;
76138;SDS011;65138;50.946;7.074;2023-03-01T13:21:46;6.18;;;2.50;;
76138;SDS011;65138;50.946;7.074;2023-03-01T13:32:24;4.00;;;2.30;;
76138;SDS011;65138;50.946;7.074;2023-03-01T13:35:00;5.30;;;3.28;;
76138;SDS011;65138;50.946;7.074;2023-03-01T13:37:32;5.60;;;2.42;;
76138;SDS011;65138;50.946;7.074;2023-03-01T13:39:59;5.70;;;2.65;;
76138;SDS011;65138;50.946;7.074;2023-03-01T13:44:58;5.43;;;2.50;;
76138;SDS011;65138;50.946;7.074;2023-03-01T13:47:24;3.85;;;2.35;;
76138;SDS011;65138;50.946;7.074;2023-03-01T13:50:03;3.67;;;3.15;;
76138;SDS011;65138;50.946;7.074;2023-03-01T13:52:48;7.32;;;3.15;;
76138;SDS011;65138;50.946;7.074;2023-03-01T13:57:43;11.65;;;3.15;;
76138;SDS011;65138;50.946;7.074;2023-03-01T14:03:09;4.53;;;2.33;;
76138;SDS011;65138;50.946;7.074;2023-03-01T14:05:36;4.70;;;1.83;;
76138;SDS011;65138;50.946;7.074;2023-03-01T14:08:03;4.05;;;2.35;;
76138;SDS011;65138;50.946;7.074;2023-03-01T14:10:39;6.80;;;2.42;;
76138;SDS011;65138;50.946;7.074;2023-03-01T14:13:20;6.00;;;2.65;;
76138;SDS011;65138;50.946;7.074;2023-03-01T14:21:23;4.80;;;1.80;;
76138;SDS011;65138;50.946;7.074;2023-03-01T14:23:50;5.05;;;2.00;;
76138;SDS011;65138;50.946;7.074;2023-03-01T14:26:19;5.90;;;2.17;;
76138;SDS011;65138;50.946;7.074;2023-03-01T14:28:46;3.83;;;2.17;;
76138;SDS011;65138;50.946;7.074;2023-03-01T14:31:29;4.03;;;1.83;;
76138;SDS011;65138;50.946;7.074;2023-03-01T14:33:57;4.72;;;2.05;;
76138;SDS011;65138;50.946;7.074;2023-03-01T14:36:27;3.72;;;1.55;;
76138;SDS011;65138;50.946;7.074;2023-03-01T14:38:53;3.67;;;1.52;;
76138;SDS011;65138;50.946;7.074;2023-03-01T14:41:23;3.63;;;1.98;;
76138;SDS011;65138;50.946;7.074;2023-03-01T14:43:50;4.88;;;1.92;;
76138;SDS011;65138;50.946;7.074;2023-03-01T14:46:18;5.35;;;1.95;;
76138;SDS011;65138;50.946;7.074;2023-03-01T14:48:45;8.13;;;2.10;;
76138;SDS011;65138;50.946;7.074;2023-03-01T14:51:11;3.63;;;2.00;;
76138;SDS011;65138;50.946;7.074;2023-03-01T14:53:37;3.97;;;1.58;;
76138;SDS011;65138;50.946;7.074;2023-03-01T14:56:03;4.03;;;1.73;;
76138;SDS011;65138;50.946;7.074;2023-03-01T14:58:31;3.47;;;2.05;;
76138;SDS011;65138;50.946;7.074;2023-03-01T15:00:58;3.55;;;1.30;;
76138;SDS011;65138;50.946;7.074;2023-03-01T15:03:27;3.83;;;1.88;;
76138;SDS011;65138;50.946;7.074;2023-03-01T15:08:24;4.20;;;1.95;;
76138;SDS011;65138;50.946;7.074;2023-03-01T15:13:29;4.90;;;1.73;;
76138;SDS011;65138;50.946;7.074;2023-03-01T15:16:01;3.75;;;1.67;;
76138;SDS011;65138;50.946;7.074;2023-03-01T15:18:28;2.70;;;1.50;;
76138;SDS011;65138;50.946;7.074;2023-03-01T15:20:55;2.97;;;1.75;;
76138;SDS011;65138;50.946;7.074;2023-03-01T15:23:25;3.22;;;1.65;;
76138;SDS011;65138;50.946;7.074;2023-03-01T15:28:33;2.78;;;1.38;;
76138;SDS011;65138;50.946;7.074;2023-03-01T15:31:07;3.05;;;1.60;;
76138;SDS011;65138;50.946;7.074;2023-03-01T15:33:38;2.75;;;1.33;;
76138;SDS011;65138;50.946;7.074;2023-03-01T15:36:31;3.53;;;1.60;;
76138;SDS011;65138;50.946;7.074;2023-03-01T15:38:58;4.20;;;1.67;;
76138;SDS011;65138;50.946;7.074;2023-03-01T15:41:26;3.78;;;1.70;;
76138;SDS011;65138;50.946;7.074;2023-03-01T15:43:52;5.75;;;2.28;;
76138;SDS011;65138;50.946;7.074;2023-03-01T15:46:30;5.93;;;2.20;;
76138;SDS011;65138;50.946;7.074;2023-03-01T15:48:58;4.13;;;1.75;;
76138;SDS011;65138;50.946;7.074;2023-03-01T15:51:43;8.60;;;2.55;;
76138;SDS011;65138;50.946;7.074;2023-03-01T15:54:13;5.35;;;1.73;;
76138;SDS011;65138;50.946;7.074;2023-03-01T15:56:41;3.78;;;1.90;;
76138;SDS011;65138;50.946;7.074;2023-03-01T15:59:09;4.05;;;1.98;;
76138;SDS011;65138;50.946;7.074;2023-03-01T16:01:38;4.15;;;1.52;;
76138;SDS011;65138;50.946;7.074;2023-03-01T16:04:04;2.67;;;1.65;;
76138;SDS011;65138;50.946;7.074;2023-03-01T16:06:30;4.35;;;1.75;;
76138;SDS011;65138;50.946;7.074;2023-03-01T16:08:56;5.68;;;2.72;;
76138;SDS011;65138;50.946;7.074;2023-03-01T16:11:22;3.97;;;1.60;;
76138;SDS011;65138;50.946;7.074;2023-03-01T16:13:48;3.83;;;2.90;;
76138;SDS011;65138;50.946;7.074;2023-03-01T16:16:15;3.63;;;1.73;;
76138;SDS011;65138;50.946;7.074;2023-03-01T16:18:45;4.75;;;1.75;;
76138;SDS011;65138;50.946;7.074;2023-03-01T16:21:16;3.65;;;1.73;;
76138;SDS011;65138;50.946;7.074;2023-03-01T16:23:45;3.53;;;1.30;;
76138;SDS011;65138;50.946;7.074;2023-03-01T16:26:11;3.70;;;1.42;;
76138;SDS011;65138;50.946;7.074;2023-03-01T16:28:38;4.18;;;1.38;;
76138;SDS011;65138;50.946;7.074;2023-03-01T16:31:04;3.17;;;1.17;;
76138;SDS011;65138;50.946;7.074;2023-03-01T16:33:30;3.85;;;1.30;;
76138;SDS011;65138;50.946;7.074;2023-03-01T16:35:57;2.35;;;1.20;;
76138;SDS011;65138;50.946;7.074;2023-03-01T16:38:24;4.72;;;1.45;;
76138;SDS011;65138;50.946;7.074;2023-03-01T16:40:51;3.30;;;1.48;;
76138;SDS011;65138;50.946;7.074;2023-03-01T16:43:17;2.22;;;1.33;;
76138;SDS011;65138;50.946;7.074;2023-03-01T16:45:43;4.82;;;1.55;;
76138;SDS011;65138;50.946;7.074;2023-03-01T16:48:10;2.78;;;1.40;;
76138;SDS011;65138;50.946;7.074;2023-03-01T16:50:37;3.75;;;1.60;;
76138;SDS011;65138;50.946;7.074;2023-03-01T16:53:03;3.35;;;1.30;;
76138;SDS011;65138;50.946;7.074;2023-03-01T16:55:29;2.30;;;1.48;;
76138;SDS011;65138;50.946;7.074;2023-03-01T16:57:55;2.17;;;1.15;;
76138;SDS011;65138;50.946;7.074;2023-03-01T17:00:21;3.30;;;1.60;;
76138;SDS011;65138;50.946;7.074;2023-03-01T17:02:47;3.10;;;1.50;;
76138;SDS011;65138;50.946;7.074;2023-03-01T17:05:13;3.60;;;1.67;;
76138;SDS011;65138;50.946;7.074;2023-03-01T17:07:39;2.85;;;1.75;;